createdAt,value
2019-05-04T00:01:25.618Z,100.00
2019-05-04T00:03:55.012Z,100.00
2019-05-04T00:06:25.018Z,100.00
2019-05-04T00:09:14.805Z,100.00
2019-05-04T00:11:51.224Z,100.00
2019-05-04T00:14:20.562Z,100.00
2019-05-04T00:16:49.890Z,100.00
2019-05-04T00:19:19.238Z,100.00
2019-05-04T00:21:48.572Z,100.00
2019-05-04T00:24:17.914Z,100.00
2019-05-04T00:26:47.242Z,100.00
2019-05-04T00:29:16.575Z,100.00
2019-05-04T00:34:45.940Z,100.00
2019-05-04T00:37:55.185Z,100.00
2019-05-04T00:40:25.013Z,100.00
2019-05-04T00:43:00.992Z,100.00
2019-05-04T00:45:30.324Z,100.00
2019-05-04T00:47:59.658Z,100.00
2019-05-04T00:50:29.001Z,100.00
2019-05-04T00:52:58.580Z,100.00
2019-05-04T00:55:47.036Z,100.00
2019-05-04T01:01:30.841Z,100.00
2019-05-04T01:04:19.513Z,100.00
2019-05-04T01:06:48.862Z,100.00
2019-05-04T01:09:18.197Z,100.00
2019-05-04T01:11:47.535Z,100.00
2019-05-04T01:14:16.877Z,100.00
2019-05-04T01:16:51.389Z,100.00
2019-05-04T01:22:25.098Z,100.00
2019-05-04T01:28:15.188Z,99.90
2019-05-04T01:31:10.471Z,95.67
2019-05-04T01:33:58.922Z,94.26
2019-05-04T01:39:44.618Z,93.00
2019-05-04T01:42:19.723Z,94.15
2019-05-04T01:44:49.058Z,97.56
2019-05-04T01:47:18.383Z,97.86
2019-05-04T01:53:21.499Z,100.00
2019-05-04T02:01:26.155Z,100.00
2019-05-04T02:03:55.501Z,100.00
2019-05-04T02:06:25.090Z,100.00
2019-05-04T02:09:35.427Z,100.00
2019-05-04T02:12:25.655Z,100.00
2019-05-04T02:15:01.433Z,100.00
2019-05-04T02:17:36.918Z,100.00
2019-05-04T02:20:25.944Z,100.00
2019-05-04T02:23:15.831Z,100.00
2019-05-04T02:28:45.096Z,100.00
2019-05-04T02:31:20.203Z,100.00
2019-05-04T02:33:49.552Z,100.00
2019-05-04T02:36:18.886Z,100.00
2019-05-04T02:38:48.209Z,100.00
2019-05-04T02:41:37.833Z,100.00
2019-05-04T02:44:15.928Z,100.00
2019-05-04T02:47:07.310Z,100.00
2019-05-04T02:52:16.843Z,100.00
2019-05-04T02:54:46.864Z,100.00
2019-05-04T02:57:22.627Z,100.00
2019-05-04T02:59:52.284Z,100.00
2019-05-04T03:02:21.613Z,100.00
2019-05-04T03:04:50.949Z,100.00
2019-05-04T03:07:20.285Z,100.00
2019-05-04T03:09:49.890Z,100.00
2019-05-04T03:12:19.225Z,100.00
2019-05-04T03:14:54.975Z,100.00
2019-05-04T03:23:26.430Z,100.00
2019-05-04T03:25:56.152Z,100.00
2019-05-04T03:28:46.369Z,100.00
2019-05-04T03:31:27.643Z,100.00
2019-05-04T03:34:02.256Z,100.00
2019-05-04T03:36:33.981Z,100.00
2019-05-04T03:39:21.806Z,100.00
2019-05-04T03:42:05.544Z,100.00
2019-05-04T03:44:36.516Z,100.00
2019-05-04T03:47:30.059Z,100.00
2019-05-04T03:50:18.528Z,100.00
2019-05-04T03:52:47.861Z,100.00
2019-05-04T03:58:17.786Z,100.00
2019-05-04T04:00:47.113Z,100.00
2019-05-04T04:03:16.570Z,100.00
2019-05-04T04:05:46.260Z,100.00
2019-05-04T04:08:36.074Z,100.00
2019-05-04T04:11:05.843Z,100.00
2019-05-04T04:13:56.018Z,100.00
2019-05-04T04:16:51.145Z,100.00
2019-05-04T04:19:39.587Z,100.00
2019-05-04T04:22:09.002Z,100.00
2019-05-04T04:24:46.081Z,100.00
2019-05-04T04:32:56.074Z,100.00
2019-05-04T04:35:45.931Z,100.00
2019-05-04T04:38:35.522Z,100.00
2019-05-04T04:41:25.458Z,100.00
2019-05-04T04:44:01.383Z,100.00
2019-05-04T04:46:30.725Z,100.00
2019-05-04T04:49:00.063Z,100.00
2019-05-04T04:51:29.402Z,100.00
2019-05-04T04:53:58.743Z,100.00
2019-05-04T04:59:27.463Z,100.00
2019-05-04T05:01:56.799Z,100.00
2019-05-04T05:04:26.147Z,100.00
2019-05-04T05:06:55.817Z,100.00
2019-05-04T05:09:42.702Z,100.00
2019-05-04T05:12:08.856Z,100.00
2019-05-04T05:14:38.195Z,100.00
2019-05-04T05:17:07.524Z,100.00
2019-05-04T05:19:42.059Z,100.00
2019-05-04T05:22:11.400Z,100.00
2019-05-04T05:24:40.731Z,100.00
2019-05-04T05:27:11.784Z,100.00
2019-05-04T05:29:41.110Z,100.00
2019-05-04T05:32:29.574Z,100.00
2019-05-04T05:37:55.969Z,100.00
2019-05-04T05:40:31.169Z,100.00
2019-05-04T05:43:00.511Z,100.00
2019-05-04T05:45:49.769Z,100.00
2019-05-04T05:51:24.724Z,100.00
2019-05-04T05:54:15.222Z,100.00
2019-05-04T05:59:49.262Z,100.00
2019-05-04T06:02:40.967Z,100.00
2019-05-04T06:05:35.170Z,100.00
2019-05-04T06:19:56.104Z,99.49
2019-05-04T06:28:28.199Z,100.00
2019-05-04T06:43:30.476Z,100.00
2019-05-04T06:46:24.835Z,99.41
2019-05-04T06:49:02.208Z,100.00
2019-05-04T06:54:52.931Z,98.50
2019-05-04T06:57:52.789Z,98.00
2019-05-04T07:03:04.586Z,98.09
2019-05-04T07:05:35.080Z,98.89
2019-05-04T07:08:10.188Z,99.29
2019-05-04T07:10:56.731Z,100.00
2019-05-04T07:13:23.917Z,100.00
2019-05-04T07:15:58.684Z,100.00
2019-05-04T07:21:35.788Z,100.00
2019-05-04T07:24:05.194Z,100.00
2019-05-04T07:26:39.416Z,100.00
2019-05-04T07:29:15.874Z,100.00
2019-05-04T07:32:06.352Z,99.93
2019-05-04T07:34:41.467Z,100.00
2019-05-04T07:37:47.315Z,99.87
2019-05-04T07:40:40.286Z,100.00
2019-05-04T07:45:48.675Z,100.00
2019-05-04T07:48:18.020Z,100.00
2019-05-04T07:50:47.354Z,100.00
2019-05-04T07:53:16.688Z,100.00
2019-05-04T07:56:25.940Z,100.00
2019-05-04T07:58:55.263Z,100.00
2019-05-04T08:01:28.708Z,100.00
2019-05-04T08:04:14.800Z,100.00
2019-05-04T08:06:44.644Z,100.00
2019-05-04T08:09:35.203Z,100.00
2019-05-04T08:12:39.107Z,100.00
2019-05-04T08:18:28.763Z,100.00
2019-05-04T08:23:41.194Z,100.00
2019-05-04T08:26:29.925Z,100.00
2019-05-04T08:29:05.243Z,100.00
2019-05-04T08:31:34.884Z,100.00
2019-05-04T08:34:14.460Z,100.00
2019-05-04T08:36:51.428Z,100.00
2019-05-04T08:39:34.839Z,100.00
2019-05-04T08:42:24.569Z,100.00
2019-05-04T08:44:46.667Z,100.00
2019-05-04T08:49:58.737Z,100.00
2019-05-04T08:53:07.148Z,100.00
2019-05-04T08:56:01.595Z,100.00
2019-05-04T09:04:22.019Z,100.00
2019-05-04T09:07:04.296Z,100.00
2019-05-04T09:09:36.883Z,100.00
2019-05-04T09:12:19.074Z,100.00
2019-05-04T09:14:56.339Z,100.00
2019-05-04T09:17:25.678Z,100.00
2019-05-04T09:19:58.335Z,100.00
2019-05-04T09:22:34.928Z,100.00
2019-05-04T09:28:11.975Z,100.00
2019-05-04T09:30:53.346Z,100.00
2019-05-04T09:33:32.418Z,100.00
2019-05-04T09:36:06.879Z,100.00
2019-05-04T09:38:41.061Z,100.00
2019-05-04T09:41:34.562Z,100.00
2019-05-04T09:44:15.557Z,100.00
2019-05-04T09:46:49.225Z,100.00
2019-05-04T09:49:35.249Z,100.00
2019-05-04T09:52:24.733Z,100.00
2019-05-04T09:55:15.302Z,100.00
2019-05-04T09:58:09.229Z,100.00
2019-05-04T10:03:17.743Z,100.00
2019-05-04T10:05:47.074Z,100.00
2019-05-04T10:08:16.484Z,100.00
2019-05-04T10:14:27.626Z,100.00
2019-05-04T10:19:37.425Z,100.00
2019-05-04T10:22:06.754Z,100.00
2019-05-04T10:24:55.367Z,100.00
2019-05-04T10:30:20.242Z,100.00
2019-05-04T10:32:49.570Z,100.00
2019-05-04T10:35:18.900Z,100.00
2019-05-04T10:37:49.115Z,100.00
2019-05-04T10:40:38.345Z,100.00
2019-05-04T10:43:07.689Z,100.00
2019-05-04T10:45:37.089Z,100.00
2019-05-04T10:48:06.431Z,100.00
2019-05-04T10:50:39.022Z,100.00
2019-05-04T10:53:26.195Z,100.00
2019-05-04T10:56:01.773Z,100.00
2019-05-04T10:58:31.096Z,100.00
2019-05-04T11:01:00.442Z,100.00
2019-05-04T11:03:29.777Z,100.00
2019-05-04T11:05:59.124Z,100.00
2019-05-04T11:08:28.441Z,100.00
2019-05-04T11:11:23.018Z,100.00
2019-05-04T11:14:03.060Z,100.00
2019-05-04T11:16:35.070Z,100.00
2019-05-04T11:19:09.962Z,100.00
2019-05-04T11:21:39.290Z,100.00
2019-05-04T11:24:08.622Z,100.00
2019-05-04T11:29:34.820Z,100.00
2019-05-04T11:32:10.141Z,100.00
2019-05-04T11:34:39.486Z,100.00
2019-05-04T11:37:08.810Z,100.00
2019-05-04T11:39:38.135Z,100.00
2019-05-04T11:42:07.474Z,100.00
2019-05-04T11:44:36.806Z,100.00
2019-05-04T11:47:06.127Z,100.00
2019-05-04T11:49:35.466Z,100.00
2019-05-04T11:52:04.930Z,100.00
2019-05-04T11:54:34.638Z,100.00
2019-05-04T11:57:10.886Z,100.00
2019-05-04T11:59:40.234Z,100.00
2019-05-04T12:02:09.557Z,100.00
2019-05-04T12:04:58.029Z,100.00
2019-05-04T12:10:41.654Z,100.00
2019-05-04T12:13:10.979Z,100.00
2019-05-04T12:15:40.306Z,100.00
2019-05-04T12:18:09.644Z,100.00
2019-05-04T12:20:38.966Z,100.00
2019-05-04T12:23:08.296Z,100.00
2019-05-04T12:25:37.632Z,100.00
2019-05-04T12:28:06.960Z,100.00
2019-05-04T12:30:36.285Z,100.00
2019-05-04T12:33:05.941Z,100.00
2019-05-04T12:35:35.192Z,100.00
2019-05-04T12:38:06.322Z,100.00
2019-05-04T12:40:56.055Z,100.00
2019-05-04T12:43:31.236Z,100.00
2019-05-04T12:46:00.580Z,100.00
2019-05-04T12:48:29.916Z,100.00
2019-05-04T12:50:59.241Z,100.00
2019-05-04T12:53:28.584Z,100.00
2019-05-04T12:55:57.908Z,100.00
2019-05-04T12:58:27.238Z,100.00
2019-05-04T13:01:15.674Z,100.00
2019-05-04T13:03:47.992Z,100.00
2019-05-04T13:06:35.198Z,100.00
2019-05-04T13:12:38.895Z,100.00
2019-05-04T13:15:08.362Z,100.00
2019-05-04T13:17:56.817Z,100.00
2019-05-04T13:20:26.160Z,100.00
2019-05-04T13:22:55.710Z,100.00
2019-05-04T13:25:31.641Z,100.00
2019-05-04T13:28:14.311Z,100.00
2019-05-04T13:30:44.406Z,100.00
2019-05-04T13:33:20.358Z,100.00
2019-05-04T13:35:49.767Z,100.00
2019-05-04T13:38:19.130Z,100.00
2019-05-04T13:40:48.463Z,100.00
2019-05-04T13:43:17.796Z,100.00
2019-05-04T13:45:47.124Z,100.00
2019-05-04T13:48:16.461Z,100.00
2019-05-04T13:50:45.802Z,100.00
2019-05-04T14:01:49.245Z,100.00
2019-05-04T14:04:37.692Z,100.00
2019-05-04T14:07:07.029Z,100.00
2019-05-04T14:09:36.352Z,100.00
2019-05-04T14:12:45.598Z,100.00
2019-05-04T14:15:28.348Z,100.00
2019-05-04T14:18:05.175Z,100.00
2019-05-04T14:20:34.930Z,100.00
2019-05-04T14:23:25.523Z,100.00
2019-05-04T14:26:01.390Z,100.00
2019-05-04T14:28:30.732Z,100.00
2019-05-04T14:31:00.062Z,100.00
2019-05-04T14:33:29.395Z,100.00
2019-05-04T14:35:58.728Z,100.00
2019-05-04T14:38:28.051Z,100.00
2019-05-04T14:40:57.394Z,100.00
2019-05-04T14:46:41.560Z,100.00
2019-05-04T14:52:06.112Z,100.00
2019-05-04T14:55:00.683Z,100.00
2019-05-04T14:57:30.021Z,100.00
2019-05-04T14:59:59.348Z,100.00
2019-05-04T15:03:08.600Z,100.00
2019-05-04T15:05:37.930Z,100.00
2019-05-04T15:08:07.264Z,100.00
2019-05-04T15:10:36.611Z,100.00
2019-05-04T15:13:05.933Z,100.00
2019-05-04T15:15:35.288Z,100.00
2019-05-04T15:18:05.170Z,100.00
2019-05-04T15:21:00.070Z,100.00
2019-05-04T15:23:29.415Z,100.00
2019-05-04T15:26:17.844Z,100.00
2019-05-04T15:28:47.183Z,100.00
2019-05-04T15:31:16.516Z,100.00
2019-05-04T15:33:45.857Z,100.00
2019-05-04T15:36:15.212Z,100.00
2019-05-04T15:38:44.589Z,100.00
2019-05-04T15:41:14.797Z,100.00
2019-05-04T15:43:50.209Z,100.00
2019-05-04T15:46:19.540Z,100.00
2019-05-04T15:48:48.880Z,100.00
2019-05-04T15:51:37.321Z,100.00
2019-05-04T15:54:25.789Z,100.00
2019-05-04T15:57:14.879Z,100.00
2019-05-04T16:02:26.384Z,100.00
2019-05-04T16:05:15.675Z,100.00
2019-05-04T16:08:05.577Z,100.00
2019-05-04T16:10:34.927Z,100.00
2019-05-04T16:13:05.402Z,100.00
2019-05-04T16:15:43.055Z,100.00
2019-05-04T16:18:17.230Z,100.00
2019-05-04T16:20:46.576Z,100.00
2019-05-04T16:23:28.389Z,100.00
2019-05-04T16:28:54.941Z,100.00
2019-05-04T16:31:29.880Z,100.00
2019-05-04T16:33:59.482Z,100.00
2019-05-04T16:39:37.819Z,100.00
2019-05-04T16:42:07.545Z,100.00
2019-05-04T16:44:36.976Z,100.00
2019-05-04T16:47:06.304Z,100.00
2019-05-04T16:49:35.674Z,100.00
2019-05-04T16:54:46.346Z,100.00
2019-05-04T16:57:21.067Z,100.00
2019-05-04T16:59:50.402Z,100.00
2019-05-04T17:02:39.122Z,100.00
2019-05-04T17:08:17.707Z,100.00
2019-05-04T17:10:54.490Z,100.00
2019-05-04T17:13:30.137Z,100.00
2019-05-04T17:16:10.322Z,100.00
2019-05-04T17:18:49.942Z,100.00
2019-05-04T17:21:26.556Z,100.00
2019-05-04T17:23:55.978Z,100.00
2019-05-04T17:26:46.462Z,100.00
2019-05-04T17:29:15.990Z,100.00
2019-05-04T17:31:45.507Z,100.00
2019-05-04T17:34:15.029Z,100.00
2019-05-04T17:36:44.818Z,100.00
2019-05-04T17:39:14.800Z,100.00
2019-05-04T17:41:45.962Z,100.00
2019-05-04T17:44:16.934Z,100.00
2019-05-04T17:46:50.956Z,100.00
2019-05-04T17:49:20.292Z,100.00
2019-05-04T17:51:49.645Z,100.00
2019-05-04T17:54:18.976Z,100.00
2019-05-04T17:56:48.347Z,100.00
2019-05-04T17:59:17.942Z,100.00
2019-05-04T18:01:51.598Z,100.00
2019-05-04T18:04:22.578Z,100.00
2019-05-04T18:06:51.928Z,100.00
2019-05-04T18:09:21.272Z,100.00
2019-05-04T18:12:00.937Z,100.00
2019-05-04T18:14:31.950Z,100.00
2019-05-04T18:17:02.907Z,100.00
2019-05-04T18:19:32.252Z,100.00
2019-05-04T18:22:01.601Z,100.00
2019-05-04T18:24:30.935Z,100.00
2019-05-04T18:27:00.282Z,100.00
2019-05-04T18:29:29.620Z,100.00
2019-05-04T18:31:58.977Z,100.00
2019-05-04T18:34:28.550Z,100.00
2019-05-04T18:36:58.127Z,100.00
2019-05-04T18:39:27.478Z,100.00
2019-05-04T18:41:58.458Z,100.00
2019-05-04T18:44:34.475Z,100.00
2019-05-04T18:47:05.499Z,100.00
2019-05-04T18:49:36.487Z,100.00
2019-05-04T18:52:05.914Z,100.00
2019-05-04T18:54:35.480Z,100.00
2019-05-04T18:57:04.948Z,100.00
2019-05-04T18:59:35.636Z,100.00
2019-05-04T19:02:05.155Z,100.00
2019-05-04T19:04:34.736Z,100.00
2019-05-04T19:07:05.798Z,100.00
2019-05-04T19:09:38.364Z,100.00
2019-05-04T19:12:07.806Z,100.00
2019-05-04T19:14:37.245Z,100.00
2019-05-04T19:19:27.121Z,100.00
2019-05-04T19:21:56.590Z,100.00
2019-05-04T19:24:45.058Z,100.00
2019-05-04T19:27:14.468Z,100.00
2019-05-04T19:29:44.830Z,100.00
2019-05-04T19:32:35.390Z,100.00
2019-05-04T19:38:19.800Z,100.00
2019-05-04T19:40:49.165Z,100.00
2019-05-04T19:43:37.863Z,100.00
2019-05-04T19:46:26.316Z,100.00
2019-05-04T19:51:51.071Z,100.00
2019-05-04T19:54:20.420Z,100.00
2019-05-04T19:56:49.802Z,100.00
2019-05-04T19:59:19.150Z,100.00
2019-05-04T20:01:48.570Z,100.00
2019-05-04T20:04:17.915Z,100.00
2019-05-04T20:07:06.447Z,100.00
2019-05-04T20:09:55.572Z,100.00
2019-05-04T20:12:44.904Z,100.00
2019-05-04T20:15:54.846Z,100.00
2019-05-04T20:21:11.245Z,100.00
2019-05-04T20:23:40.587Z,100.00
2019-05-04T20:26:09.955Z,100.00
2019-05-04T20:28:39.301Z,100.00
2019-05-04T20:31:08.716Z,100.00
2019-05-04T20:33:38.060Z,100.00
2019-05-04T20:36:07.474Z,100.00
2019-05-04T20:38:36.822Z,100.00
2019-05-04T20:41:06.154Z,100.00
2019-05-04T20:43:35.594Z,100.00
2019-05-04T20:51:59.964Z,100.00
2019-05-04T20:54:29.299Z,100.00
2019-05-04T20:56:58.634Z,100.00
2019-05-04T20:59:27.982Z,100.00
2019-05-04T21:02:16.458Z,100.00
2019-05-04T21:05:04.917Z,100.00
2019-05-04T21:07:34.517Z,100.00
2019-05-04T21:10:44.756Z,100.00
2019-05-04T21:13:20.303Z,100.00
2019-05-04T21:15:49.662Z,100.00
2019-05-04T21:18:38.140Z,100.00
2019-05-04T21:21:26.677Z,100.00
2019-05-04T21:23:56.183Z,100.00
2019-05-04T21:26:25.827Z,100.00
2019-05-04T21:28:55.454Z,100.00
2019-05-04T21:31:31.961Z,100.00
2019-05-04T21:34:01.343Z,100.00
2019-05-04T21:36:30.711Z,100.00
2019-05-04T21:39:19.392Z,100.00
2019-05-04T21:41:48.737Z,100.00
2019-05-04T21:44:37.217Z,100.00
2019-05-04T21:50:21.185Z,100.00
2019-05-04T21:52:50.523Z,100.00
2019-05-04T21:55:19.945Z,100.00
2019-05-04T21:57:49.343Z,100.00
2019-05-04T22:00:58.598Z,100.00
2019-05-04T22:03:38.696Z,100.00
2019-05-04T22:06:08.157Z,100.00
2019-05-04T22:08:37.580Z,100.00
2019-05-04T22:11:06.920Z,100.00
2019-05-04T22:13:36.326Z,100.00
2019-05-04T22:16:05.655Z,100.00
2019-05-04T22:18:34.947Z,100.00
2019-05-04T22:21:05.532Z,100.00
2019-05-04T22:23:40.876Z,100.00
2019-05-04T22:26:10.223Z,100.00
2019-05-04T22:28:39.828Z,100.00
2019-05-04T22:31:09.166Z,100.00
2019-05-04T22:33:38.835Z,100.00
2019-05-04T22:38:58.192Z,100.00
2019-05-04T22:41:27.527Z,100.00
2019-05-04T22:43:56.842Z,100.00
2019-05-04T22:46:26.108Z,100.00
2019-05-04T22:48:55.444Z,100.00
2019-05-04T22:51:25.205Z,100.00
2019-05-04T22:54:34.302Z,100.00
2019-05-04T23:05:19.595Z,100.00
2019-05-04T23:07:48.935Z,100.00
2019-05-04T23:10:18.273Z,100.00
2019-05-04T23:12:47.748Z,100.00
2019-05-04T23:15:17.147Z,100.00
2019-05-04T23:17:46.482Z,100.00
2019-05-04T23:20:15.911Z,100.00
2019-05-04T23:23:24.952Z,100.00
2019-05-04T23:26:14.937Z,100.00
2019-05-04T23:28:54.400Z,100.00
2019-05-04T23:31:30.046Z,100.00
2019-05-04T23:33:59.452Z,100.00
2019-05-04T23:36:28.855Z,100.00
2019-05-04T23:38:58.219Z,100.00
2019-05-04T23:41:39.828Z,100.00
2019-05-04T23:44:09.173Z,100.00
2019-05-04T23:49:35.245Z,100.00
2019-05-04T23:52:10.434Z,100.00
2019-05-04T23:54:39.793Z,100.00
2019-05-04T23:57:09.131Z,100.00
2019-05-04T23:59:38.469Z,100.00
